Time;durP1;ratioP1;P1;durP2;ratioP2;P2;SDS_P1;SDS_P2;PMS_P1;PMS_P2;Temp;Humidity;BMP_temperature;BMP_pressure;BME280_temperature;BME280_humidity;BME280_pressure;Samples;Min_cycle;Max_cycle;Signal;HPM_P1;HPM_P2
2023/10/16 00:01:58;;;;;;;12.20;5.22;;;2.70;60.30;;;;;;6194997;28;20600;-75
2023/10/16 00:05:08;;;;;;;12.18;5.15;;;2.70;58.00;;;;;;6198347;28;20050;-74
2023/10/16 00:08:10;;;;;;;10.55;4.90;;;2.70;60.10;;;;;;6197563;28;20050;-75
2023/10/16 00:11:12;;;;;;;10.18;4.95;;;2.60;59.30;;;;;;6196946;28;20129;-75
2023/10/16 00:14:23;;;;;;;11.48;5.00;;;2.60;60.00;;;;;;6180317;28;20411;-75
2023/10/16 00:17:31;;;;;;;11.68;5.03;;;2.60;58.00;;;;;;6175799;28;20094;-75
2023/10/16 00:20:33;;;;;;;10.93;4.80;;;2.60;59.80;;;;;;6172762;28;20061;-76
2023/10/16 00:23:40;;;;;;;8.57;4.60;;;2.60;57.50;;;;;;6197565;28;20747;-76
2023/10/16 00:26:48;;;;;;;15.73;5.40;;;2.50;57.40;;;;;;6196039;28;20055;-75
2023/10/16 00:29:51;;;;;;;9.70;4.78;;;2.50;60.10;;;;;;6190967;28;20171;-75
2023/10/16 00:32:52;;;;;;;10.70;4.95;;;2.50;62.40;;;;;;6197984;28;20050;-75
2023/10/16 00:35:54;;;;;;;12.25;5.30;;;2.50;62.00;;;;;;6175923;28;20062;-75
2023/10/16 00:38:56;;;;;;;12.88;5.22;;;2.50;60.70;;;;;;6197467;28;20129;-75
2023/10/16 00:42:00;;;;;;;11.75;5.10;;;2.50;63.90;;;;;;6197351;28;20058;-75
2023/10/16 00:45:03;;;;;;;11.05;5.05;;;2.50;64.80;;;;;;6193797;28;20216;-75
2023/10/16 00:48:06;;;;;;;10.10;4.65;;;2.50;63.00;;;;;;6173289;28;20055;-75
2023/10/16 00:51:16;;;;;;;12.60;4.82;;;2.40;63.10;;;;;;6196728;28;20061;-75
2023/10/16 00:54:38;;;;;;;15.10;5.43;;;2.40;63.30;;;;;;6173580;28;20062;-75
2023/10/16 00:57:43;;;;;;;11.32;4.72;;;2.50;65.00;;;;;;6174347;28;20066;-75
2023/10/16 01:00:47;;;;;;;13.73;5.50;;;2.50;67.50;;;;;;6195455;28;20054;-75
2023/10/16 01:03:49;;;;;;;11.43;5.10;;;2.50;67.30;;;;;;6197463;28;20061;-75
2023/10/16 01:06:51;;;;;;;12.68;4.60;;;2.50;67.50;;;;;;6197250;28;20120;-75
2023/10/16 01:09:53;;;;;;;10.63;4.68;;;2.50;66.20;;;;;;6196826;28;20050;-75
2023/10/16 01:12:55;;;;;;;11.18;4.70;;;2.50;64.40;;;;;;6195606;28;20050;-75
2023/10/16 01:15:57;;;;;;;11.73;4.72;;;2.40;63.90;;;;;;6196869;28;20077;-75
2023/10/16 01:19:00;;;;;;;11.68;5.15;;;2.40;62.70;;;;;;6172607;28;20058;-75
2023/10/16 01:22:02;;;;;;;10.77;4.70;;;2.30;61.30;;;;;;6195933;28;20491;-75
2023/10/16 01:25:08;;;;;;;13.13;5.10;;;2.20;61.80;;;;;;6196444;28;20054;-75
2023/10/16 01:28:10;;;;;;;12.27;4.97;;;2.20;63.10;;;;;;6181378;28;20050;-75
2023/10/16 01:31:13;;;;;;;14.18;4.88;;;2.20;61.00;;;;;;6196560;28;20794;-75
2023/10/16 01:34:15;;;;;;;12.57;4.65;;;2.20;62.60;;;;;;6196631;28;20053;-75
2023/10/16 01:37:18;;;;;;;12.15;4.78;;;2.10;62.50;;;;;;6196310;28;20070;-75
2023/10/16 01:40:25;;;;;;;11.50;4.93;;;2.10;63.10;;;;;;6196238;28;20524;-75
2023/10/16 01:43:28;;;;;;;12.52;4.70;;;2.10;64.50;;;;;;6177163;28;20162;-75
2023/10/16 01:46:30;;;;;;;10.40;4.63;;;2.10;63.50;;;;;;6196030;28;20065;-75
2023/10/16 01:49:31;;;;;;;11.27;4.47;;;2.10;63.10;;;;;;6192012;28;20061;-75
2023/10/16 01:52:34;;;;;;;10.93;4.47;;;2.10;62.60;;;;;;6172313;28;20061;-75
2023/10/16 01:55:35;;;;;;;11.90;4.70;;;2.10;61.50;;;;;;6194893;28;20136;-75
2023/10/16 01:58:39;;;;;;;11.27;4.70;;;2.10;63.10;;;;;;6192413;28;20046;-74
2023/10/16 02:01:41;;;;;;;10.73;4.57;;;2.10;65.70;;;;;;6172138;28;20055;-75
2023/10/16 02:04:43;;;;;;;10.82;4.90;;;2.10;65.20;;;;;;6195428;28;20058;-75
2023/10/16 02:07:45;;;;;;;8.48;4.30;;;2.10;64.80;;;;;;6177091;28;20066;-75
2023/10/16 02:10:46;;;;;;;10.70;4.70;;;2.10;64.50;;;;;;6195257;28;20061;-75
2023/10/16 02:13:48;;;;;;;10.40;4.75;;;2.10;66.10;;;;;;6179076;28;20592;-75
2023/10/16 02:16:51;;;;;;;11.35;4.15;;;2.00;65.50;;;;;;6182654;28;20065;-75
2023/10/16 02:19:53;;;;;;;11.57;4.15;;;2.00;64.00;;;;;;6195333;28;20064;-75
2023/10/16 02:22:55;;;;;;;9.95;4.10;;;1.90;62.70;;;;;;6194695;28;21661;-75
2023/10/16 02:25:56;;;;;;;9.23;3.75;;;1.90;63.20;;;;;;6194869;28;20161;-75
2023/10/16 02:29:00;;;;;;;8.10;3.50;;;1.90;62.20;;;;;;6179285;28;20058;-74
2023/10/16 02:32:04;;;;;;;9.40;3.72;;;1.90;61.30;;;;;;6194812;28;20487;-75
2023/10/16 02:35:13;;;;;;;9.05;3.58;;;1.80;62.50;;;;;;6190878;28;20100;-75
2023/10/16 02:38:16;;;;;;;7.93;3.53;;;1.80;62.10;;;;;;6170975;28;20177;-75
2023/10/16 02:41:21;;;;;;;9.98;3.10;;;1.80;61.10;;;;;;6194739;28;20054;-75
2023/10/16 02:44:23;;;;;;;9.40;3.40;;;1.70;60.30;;;;;;6176732;28;20061;-75
2023/10/16 02:47:27;;;;;;;7.75;3.00;;;1.70;60.10;;;;;;6194316;28;20062;-75
2023/10/16 02:50:29;;;;;;;7.38;3.00;;;1.70;60.00;;;;;;6181612;28;20069;-75
2023/10/16 02:53:33;;;;;;;7.63;2.88;;;1.70;60.10;;;;;;6191040;28;20399;-74
2023/10/16 02:56:36;;;;;;;6.97;2.65;;;1.70;61.20;;;;;;6194460;28;20423;-74
2023/10/16 02:59:38;;;;;;;7.07;2.70;;;1.70;61.00;;;;;;6192593;28;20050;-74
2023/10/16 03:02:40;;;;;;;6.78;2.42;;;1.60;61.20;;;;;;6171024;28;20051;-74
2023/10/16 03:05:44;;;;;;;7.32;2.90;;;1.70;61.20;;;;;;6193953;28;20069;-74
2023/10/16 03:08:51;;;;;;;9.05;3.15;;;1.60;60.30;;;;;;6194500;28;20059;-75
2023/10/16 03:12:02;;;;;;;9.75;2.95;;;1.60;60.10;;;;;;6194638;28;20062;-75
2023/10/16 03:15:15;;;;;;;7.63;2.67;;;1.60;59.00;;;;;;6168443;28;20054;-75
2023/10/16 03:18:17;;;;;;;8.18;3.05;;;1.60;60.20;;;;;;6194264;28;20161;-75
2023/10/16 03:21:28;;;;;;;8.13;2.83;;;1.60;64.20;;;;;;6193908;28;20050;-74
2023/10/16 03:24:34;;;;;;;8.20;2.90;;;1.70;63.80;;;;;;6190733;28;20418;-74
2023/10/16 03:27:38;;;;;;;10.00;2.95;;;1.60;63.30;;;;;;6191639;28;20132;-75
2023/10/16 03:30:42;;;;;;;7.95;3.15;;;1.60;62.90;;;;;;6192709;28;20057;-75
2023/10/16 03:33:44;;;;;;;7.18;3.10;;;1.60;64.60;;;;;;6170416;28;20058;-75
2023/10/16 03:36:49;;;;;;;7.32;2.70;;;1.70;67.00;;;;;;6193557;28;20058;-75
2023/10/16 03:39:56;;;;;;;7.53;2.80;;;1.70;65.60;;;;;;6172282;28;20047;-75
2023/10/16 03:42:58;;;;;;;7.10;2.90;;;1.60;64.10;;;;;;6188842;28;20050;-74
2023/10/16 03:46:00;;;;;;;6.72;2.63;;;1.60;64.90;;;;;;6205305;22;20074;-79
2023/10/16 03:49:01;;;;;;;8.75;3.05;;;1.60;64.20;;;;;;6192663;28;20058;-80
2023/10/16 03:52:07;;;;;;;7.30;2.83;;;1.70;63.30;;;;;;6192841;28;20729;-80
2023/10/16 03:55:28;;;;;;;6.07;2.53;;;1.60;62.30;;;;;;6173424;28;20066;-80
2023/10/16 03:58:41;;;;;;;9.10;3.50;;;1.60;62.70;;;;;;6194840;28;20066;-80
2023/10/16 04:01:44;;;;;;;6.10;3.08;;;1.60;63.20;;;;;;6174733;28;20066;-80
2023/10/16 04:04:53;;;;;;;7.22;3.13;;;1.60;62.40;;;;;;6196630;28;20054;-80
2023/10/16 04:07:55;;;;;;;8.43;2.85;;;1.60;62.30;;;;;;6189644;28;20486;-81
2023/10/16 04:10:56;;;;;;;8.05;3.40;;;1.60;62.40;;;;;;6196677;28;20058;-80
2023/10/16 04:13:58;;;;;;;7.25;2.80;;;1.60;62.80;;;;;;6193588;28;20050;-80
2023/10/16 04:17:01;;;;;;;9.30;2.83;;;1.60;63.60;;;;;;6196724;28;20145;-80
2023/10/16 04:23:47;;;;;;;6.95;2.90;;;1.70;62.00;;;;;;6185662;28;20054;-79
2023/10/16 04:26:57;;;;;;;6.57;2.63;;;1.60;61.10;;;;;;6188787;28;20106;-79
2023/10/16 04:33:13;;;;;;;5.53;2.45;;;1.70;61.70;;;;;;6197060;28;20057;-79
2023/10/16 04:43:17;;;;;;;7.90;2.78;;;1.60;62.40;;;;;;6191424;28;20137;-79
2023/10/16 04:46:23;;;;;;;9.38;2.72;;;1.60;62.20;;;;;;6170663;28;20054;-79
2023/10/16 04:49:28;;;;;;;5.82;2.30;;;1.60;63.10;;;;;;6173802;28;20054;-80
2023/10/16 04:59:11;;;;;;;4.97;1.90;;;1.60;63.50;;;;;;6193428;28;20057;-81
2023/10/16 05:02:16;;;;;;;7.38;2.40;;;1.60;63.80;;;;;;6197114;28;20065;-79
2023/10/16 05:05:55;;;;;;;4.82;2.10;;;1.70;64.10;;;;;;6196021;28;20054;-79
2023/10/16 05:15:37;;;;;;;;;;;1.70;62.90;;;;;;6170619;28;20863;-80
2023/10/16 05:18:48;;;;;;;4.90;2.25;;;1.70;62.90;;;;;;6196265;28;20366;-80
2023/10/16 06:15:31;;;;;;;6.15;2.45;;;1.70;61.40;;;;;;6166733;28;20134;-81
2023/10/16 06:18:33;;;;;;;6.68;2.97;;;1.80;62.00;;;;;;6168113;28;20062;-81
2023/10/16 06:21:35;;;;;;;8.55;3.05;;;1.80;62.00;;;;;;6167945;28;20213;-81
2023/10/16 06:24:38;;;;;;;6.75;2.40;;;1.90;62.40;;;;;;6167739;28;20055;-82
2023/10/16 06:27:41;;;;;;;8.43;3.03;;;1.90;63.20;;;;;;6145352;28;20053;-81
2023/10/16 06:30:43;;;;;;;7.85;3.40;;;1.90;62.50;;;;;;6151443;28;20466;-82
2023/10/16 06:33:45;;;;;;;9.20;3.08;;;1.90;63.10;;;;;;6177901;28;20053;-82
2023/10/16 06:36:47;;;;;;;8.60;3.05;;;2.00;63.50;;;;;;6193780;28;20061;-81
2023/10/16 06:39:49;;;;;;;9.98;2.70;;;2.00;63.40;;;;;;6194904;28;20061;-81
2023/10/16 06:42:54;;;;;;;10.35;3.10;;;2.00;63.80;;;;;;6192784;28;20050;-81
2023/10/16 06:45:56;;;;;;;8.15;3.20;;;2.10;64.10;;;;;;6193603;28;20145;-81
2023/10/16 06:49:00;;;;;;;8.00;3.00;;;2.20;64.20;;;;;;6195283;28;20126;-81
2023/10/16 06:52:04;;;;;;;7.97;2.72;;;2.20;64.10;;;;;;6194791;28;20050;-82
2023/10/16 06:55:06;;;;;;;7.22;3.20;;;2.30;64.30;;;;;;6195056;28;20061;-82
2023/10/16 06:58:07;;;;;;;6.95;3.00;;;2.40;65.80;;;;;;6191074;28;20054;-82
2023/10/16 07:01:19;;;;;;;8.35;3.20;;;2.50;66.10;;;;;;6193376;28;20050;-82
2023/10/16 07:04:21;;;;;;;9.10;3.25;;;2.60;65.70;;;;;;6170786;28;20058;-82
2023/10/16 07:07:23;;;;;;;6.78;2.67;;;2.70;64.20;;;;;;6194251;28;20054;-82
2023/10/16 07:10:24;;;;;;;8.98;3.70;;;2.80;64.40;;;;;;6194673;28;20054;-80
2023/10/16 07:13:30;;;;;;;9.10;4.10;;;2.90;63.80;;;;;;6189387;28;20061;-80
2023/10/16 07:16:33;;;;;;;12.35;3.95;;;3.00;63.50;;;;;;6170905;28;20067;-78
2023/10/16 07:19:35;;;;;;;11.10;4.43;;;3.10;64.00;;;;;;6194211;28;20061;-81
2023/10/16 07:22:36;;;;;;;9.23;3.88;;;3.10;63.40;;;;;;6194472;28;20414;-81
2023/10/16 07:25:47;;;;;;;9.48;3.47;;;3.30;63.40;;;;;;6194307;28;20422;-81
2023/10/16 07:28:49;;;;;;;7.85;3.13;;;3.40;62.50;;;;;;6178812;28;20050;-82
2023/10/16 07:31:54;;;;;;;8.43;3.65;;;3.40;62.70;;;;;;6199364;28;20058;-82
2023/10/16 07:34:55;;;;;;;5.97;3.05;;;3.60;63.80;;;;;;6197222;28;20050;-83
2023/10/16 07:37:58;;;;;;;9.88;3.58;;;3.80;62.50;;;;;;6199333;28;20152;-83
2023/10/16 07:41:00;;;;;;;8.68;3.17;;;3.90;62.00;;;;;;6199039;28;20188;-80
2023/10/16 07:44:04;;;;;;;6.25;3.28;;;4.00;60.60;;;;;;6195974;28;20054;-81
2023/10/16 07:47:06;;;;;;;8.20;3.60;;;4.20;59.40;;;;;;6199078;28;20426;-81
2023/10/16 07:50:08;;;;;;;7.07;3.10;;;4.40;59.20;;;;;;6194995;28;20185;-79
2023/10/16 07:53:09;;;;;;;9.82;3.45;;;4.60;58.60;;;;;;6198543;28;20050;-81
2023/10/16 07:59:25;;;;;;;12.07;4.03;;;4.90;56.60;;;;;;6186436;28;20061;-85
2023/10/16 08:02:27;;;;;;;7.88;3.50;;;5.10;57.10;;;;;;6198006;28;20054;-82
2023/10/16 08:05:28;;;;;;;8.50;3.40;;;5.30;56.80;;;;;;6198404;28;20054;-82
2023/10/16 08:08:36;;;;;;;10.20;3.97;;;5.40;56.30;;;;;;6196421;28;20501;-83
2023/10/16 08:11:44;;;;;;;6.78;3.15;;;5.60;56.40;;;;;;6176910;28;20121;-78
2023/10/16 08:14:45;;;;;;;6.78;3.10;;;5.80;54.60;;;;;;6191117;28;20161;-79
2023/10/16 08:17:47;;;;;;;7.35;2.95;;;6.00;50.60;;;;;;6196543;28;20050;-77
2023/10/16 08:20:49;;;;;;;9.75;3.53;;;6.10;49.90;;;;;;6196795;28;20061;-76
2023/10/16 08:23:51;;;;;;;8.07;3.22;;;6.30;48.10;;;;;;6197626;28;20058;-75
2023/10/16 08:26:52;;;;;;;10.55;3.63;;;6.40;48.20;;;;;;6197380;28;20410;-76
2023/10/16 08:29:58;;;;;;;8.25;3.58;;;6.60;42.40;;;;;;6192644;28;20154;-76
2023/10/16 08:33:06;;;;;;;10.13;3.13;;;6.80;38.50;;;;;;6173680;28;20069;-78
2023/10/16 08:36:08;;;;;;;7.32;3.70;;;6.90;36.20;;;;;;6173218;28;20054;-76
2023/10/16 08:39:10;;;;;;;7.78;3.30;;;7.20;36.30;;;;;;6196794;28;20148;-77
2023/10/16 08:45:24;;;;;;;11.77;3.50;;;7.40;27.20;;;;;;6192353;28;20153;-77
2023/10/16 08:48:29;;;;;;;11.02;3.72;;;7.40;30.50;;;;;;6195553;28;20062;-78
2023/10/16 08:51:31;;;;;;;10.57;4.00;;;7.40;22.20;;;;;;6197587;28;20053;-79
2023/10/16 08:54:35;;;;;;;12.60;4.53;;;7.40;25.20;;;;;;6197181;28;20148;-79
2023/10/16 08:57:38;;;;;;;10.70;3.65;;;7.50;27.90;;;;;;6196763;28;20133;-79
2023/10/16 09:00:39;;;;;;;10.10;3.90;;;7.60;28.00;;;;;;6193013;28;20460;-79
2023/10/16 09:03:42;;;;;;;10.20;3.83;;;7.80;28.70;;;;;;6172865;28;20059;-79
2023/10/16 09:06:44;;;;;;;12.88;3.72;;;8.00;30.50;;;;;;6196610;28;20054;-79
2023/10/16 09:09:53;;;;;;;9.73;3.63;;;8.50;28.50;;;;;;6196492;28;20137;-80
2023/10/16 09:13:04;;;;;;;8.80;4.10;;;9.10;33.10;;;;;;6171895;28;20050;-79
2023/10/16 09:16:07;;;;;;;9.55;4.40;;;9.70;16.60;;;;;;6197227;28;20140;-79
2023/10/16 09:19:09;;;;;;;10.35;4.40;;;10.30;8.50;;;;;;6196927;28;20421;-79
2023/10/16 09:22:11;;;;;;;11.23;4.50;;;10.80;6.40;;;;;;6196869;28;20180;-79
2023/10/16 09:25:22;;;;;;;10.25;5.00;;;11.20;1.00;;;;;;6197216;28;20073;-80
2023/10/16 09:28:38;;;;;;;10.35;4.40;;;11.60;1.00;;;;;;6179389;28;20132;-79
2023/10/16 09:31:40;;;;;;;10.57;4.18;;;12.40;1.00;;;;;;6196164;28;20054;-80
2023/10/16 09:34:42;;;;;;;10.38;4.38;;;12.40;1.00;;;;;;6196442;28;20065;-79
2023/10/16 09:37:52;;;;;;;10.23;3.85;;;12.10;1.00;;;;;;6196325;28;20054;-79
2023/10/16 09:41:37;;;;;;;6.18;2.97;;;11.60;1.00;;;;;;6194806;28;20050;-80
2023/10/16 09:44:22;;;;;;;10.50;4.13;;;11.40;1.00;;;;;;6183867;28;20093;-80
2023/10/16 09:47:27;;;;;;;9.68;2.95;;;11.60;1.00;;;;;;6196013;28;20061;-80
2023/10/16 09:50:31;;;;;;;5.40;2.63;;;12.40;1.00;;;;;;6194513;28;20054;-80
2023/10/16 09:53:32;;;;;;;5.38;2.70;;;12.70;1.00;;;;;;6196241;28;20058;-80
2023/10/16 09:56:35;;;;;;;6.95;2.72;;;13.10;1.00;;;;;;6196043;28;20498;-79
2023/10/16 09:59:38;;;;;;;7.25;2.58;;;13.30;1.00;;;;;;6188933;28;20042;-80
2023/10/16 10:02:40;;;;;;;6.00;2.35;;;13.80;1.00;;;;;;6195795;28;20069;-80
2023/10/16 10:05:48;;;;;;;6.22;2.25;;;13.90;1.00;;;;;;6194075;28;20050;-80
2023/10/16 10:09:20;;;;;;;6.28;2.60;;;13.90;1.00;;;;;;6171365;28;20057;-80
2023/10/16 10:12:16;;;;;;;7.85;2.60;;;14.00;1.00;;;;;;6171783;28;20102;-80
2023/10/16 10:15:18;;;;;;;5.63;2.30;;;15.00;1.00;;;;;;6197198;28;20051;-81
2023/10/16 10:19:10;;;;;;;6.38;2.38;;;15.30;1.00;;;;;;6194722;28;20062;-81
2023/10/16 10:21:45;;;;;;;7.82;2.20;;;15.30;1.00;;;;;;6177007;28;20517;-81
2023/10/16 10:24:50;;;;;;;5.85;2.58;;;15.50;1.00;;;;;;6195116;28;20058;-81
2023/10/16 10:27:53;;;;;;;7.05;2.72;;;15.50;1.00;;;;;;6191376;28;20049;-80
2023/10/16 10:30:55;;;;;;;6.40;2.38;;;15.40;1.00;;;;;;6195374;28;20066;-82
2023/10/16 10:34:08;;;;;;;7.13;2.72;;;15.60;1.00;;;;;;6193957;28;20050;-83
2023/10/16 10:37:10;;;;;;;6.53;2.50;;;16.30;1.00;;;;;;6185786;28;20487;-83
2023/10/16 10:40:18;;;;;;;4.55;2.42;;;17.20;1.00;;;;;;6195211;28;20113;-83
2023/10/16 10:43:23;;;;;;;7.15;2.45;;;18.00;1.00;;;;;;6176519;28;20058;-84
2023/10/16 10:46:28;;;;;;;5.05;2.20;;;17.60;1.00;;;;;;6194954;28;20489;-83
2023/10/16 10:49:33;;;;;;;8.07;2.30;;;17.70;1.00;;;;;;6193481;28;20120;-82
2023/10/16 10:52:34;;;;;;;8.15;2.50;;;17.50;1.00;;;;;;6194609;28;20113;-82
2023/10/16 10:55:36;;;;;;;4.72;1.95;;;17.70;1.00;;;;;;6193830;28;20512;-83
2023/10/16 10:58:38;;;;;;;8.07;2.38;;;17.80;1.00;;;;;;6188330;28;20113;-84
2023/10/16 11:01:55;;;;;;;4.35;2.10;;;17.30;1.00;;;;;;6194638;28;20498;-84
2023/10/16 11:04:59;;;;;;;6.55;2.47;;;16.60;1.00;;;;;;6170227;28;20066;-83
2023/10/16 11:11:12;;;;;;;8.50;2.72;;;16.10;1.00;;;;;;6170539;28;20495;-83
2023/10/16 11:14:14;;;;;;;6.70;2.58;;;16.60;1.00;;;;;;6191916;28;20165;-82
2023/10/16 11:17:16;;;;;;;6.30;2.70;;;17.10;1.00;;;;;;6192997;28;20054;-83
2023/10/16 11:23:25;;;;;;;5.20;2.28;;;17.60;1.00;;;;;;6195321;28;20054;-83
2023/10/16 11:26:27;;;;;;;5.28;1.98;;;18.10;1.00;;;;;;6195026;28;20046;-85
2023/10/16 11:29:33;;;;;;;4.85;1.60;;;17.80;1.00;;;;;;6191140;28;20058;-85
2023/10/16 11:32:35;;;;;;;6.38;1.85;;;18.10;1.00;;;;;;6170793;28;20141;-84
2023/10/16 11:35:42;;;;;;;3.75;1.50;;;17.60;1.00;;;;;;6193822;28;20338;-84
2023/10/16 11:38:44;;;;;;;5.57;1.48;;;17.30;1.00;;;;;;6194472;28;20054;-84
2023/10/16 11:41:46;;;;;;;5.22;1.80;;;17.00;1.00;;;;;;6194476;28;20050;-76
2023/10/16 11:44:51;;;;;;;5.22;1.58;;;16.50;1.00;;;;;;6192936;28;20069;-78
2023/10/16 11:51:18;;;;;;;7.82;2.38;;;16.00;1.00;;;;;;6193585;28;20205;-80
2023/10/16 11:54:20;;;;;;;4.38;1.52;;;16.50;1.00;;;;;;6170941;28;20050;-88
2023/10/16 11:57:23;;;;;;;5.38;1.70;;;17.00;1.00;;;;;;6195805;28;20078;-88
2023/10/16 12:00:30;;;;;;;5.63;1.70;;;17.30;1.00;;;;;;6193779;28;20058;-79
2023/10/16 12:03:31;;;;;;;3.70;1.40;;;17.00;1.00;;;;;;6169958;28;20054;-81
2023/10/16 12:06:34;;;;;;;4.18;1.40;;;17.20;1.00;;;;;;6192981;28;20086;-85
2023/10/16 12:09:37;;;;;;;2.63;1.23;;;17.00;1.00;;;;;;6194254;28;20061;-78
2023/10/16 12:12:39;;;;;;;5.03;1.67;;;16.50;1.00;;;;;;6191737;28;20514;-79
2023/10/16 12:15:43;;;;;;;8.07;1.30;;;16.10;1.00;;;;;;6196445;28;20136;-78
2023/10/16 12:18:47;;;;;;;6.22;1.63;;;15.70;1.00;;;;;;6193118;28;20141;-78
2023/10/16 12:21:52;;;;;;;4.47;1.40;;;15.40;1.00;;;;;;6197633;28;20417;-79
2023/10/16 12:24:56;;;;;;;4.03;1.33;;;15.00;1.00;;;;;;6197846;28;20505;-79
2023/10/16 12:27:58;;;;;;;4.35;1.30;;;14.70;1.00;;;;;;6190240;28;20478;-77
2023/10/16 12:30:59;;;;;;;3.58;1.35;;;14.20;1.00;;;;;;6197284;28;20073;-77
2023/10/16 12:34:01;;;;;;;4.32;1.45;;;14.30;1.00;;;;;;6197267;28;20433;-77
2023/10/16 12:37:07;;;;;;;5.32;2.03;;;14.50;1.00;;;;;;6197246;28;20050;-82
2023/10/16 12:40:27;;;;;;;5.88;1.40;;;14.30;1.00;;;;;;6196012;28;20516;-82
2023/10/16 12:43:29;;;;;;;;;;;14.40;1.00;;;;;;6181235;28;20046;-81
2023/10/16 12:46:32;;;;;;;8.05;1.80;;;14.40;1.00;;;;;;6197167;28;19925;-81
2023/10/16 12:49:33;;;;;;;10.45;1.75;;;14.30;1.00;;;;;;6195653;28;20659;-82
2023/10/16 12:52:35;;;;;;;5.07;1.98;;;14.30;1.00;;;;;;6196365;28;20173;-81
2023/10/16 12:55:37;;;;;;;7.05;1.70;;;14.40;1.00;;;;;;6197691;28;20054;-80
2023/10/16 12:58:38;;;;;;;6.10;1.70;;;14.50;1.00;;;;;;6196183;28;20062;-82
2023/10/16 13:01:40;;;;;;;4.80;1.50;;;14.60;1.00;;;;;;6197109;28;20109;-83
2023/10/16 13:04:43;;;;;;;4.35;1.42;;;14.50;1.00;;;;;;6195846;28;20403;-81
2023/10/16 13:07:44;;;;;;;8.38;1.95;;;14.30;1.00;;;;;;6197650;28;20487;-84
2023/10/16 13:10:52;;;;;;;4.97;1.75;;;14.20;1.00;;;;;;6196862;28;20478;-79
2023/10/16 13:13:55;;;;;;;5.45;1.88;;;14.30;1.00;;;;;;6181900;28;20042;-81
2023/10/16 13:16:58;;;;;;;6.38;1.60;;;14.20;1.00;;;;;;6197895;28;20061;-84
2023/10/16 13:20:00;;;;;;;6.40;1.60;;;14.30;1.00;;;;;;6196116;28;20057;-82
2023/10/16 13:23:05;;;;;;;6.03;1.55;;;14.20;1.00;;;;;;6196731;28;20057;-82
2023/10/16 13:26:10;;;;;;;4.78;1.50;;;14.10;1.00;;;;;;6195618;28;20058;-80
2023/10/16 13:29:13;;;;;;;5.10;1.70;;;14.20;1.00;;;;;;6194478;28;20046;-84
2023/10/16 13:32:14;;;;;;;4.68;1.40;;;14.00;1.00;;;;;;6189110;28;20142;-81
2023/10/16 13:35:16;;;;;;;5.32;1.35;;;14.00;1.00;;;;;;6195328;28;20050;-83
2023/10/16 13:38:18;;;;;;;3.78;1.10;;;14.00;1.00;;;;;;6195006;28;20060;-85
2023/10/16 13:41:21;;;;;;;8.73;1.45;;;14.00;1.00;;;;;;6194932;28;20137;-85
2023/10/16 13:44:24;;;;;;;4.95;1.55;;;14.00;1.00;;;;;;6192376;28;20066;-84
2023/10/16 13:47:26;;;;;;;3.22;1.17;;;14.10;1.00;;;;;;6196774;28;20056;-84
2023/10/16 13:50:28;;;;;;;4.22;1.15;;;14.00;1.00;;;;;;6193218;28;20050;-85
2023/10/16 13:53:31;;;;;;;4.30;1.30;;;13.80;1.00;;;;;;6196667;28;20399;-85
2023/10/16 13:56:34;;;;;;;5.97;1.40;;;13.80;1.00;;;;;;6195547;28;20069;-80
2023/10/16 13:59:35;;;;;;;3.47;1.17;;;13.90;1.00;;;;;;6192952;28;20058;-82
2023/10/16 14:02:37;;;;;;;6.15;1.70;;;13.60;1.00;;;;;;6195963;28;20057;-85
2023/10/16 14:05:46;;;;;;;4.13;1.23;;;13.50;1.00;;;;;;6194259;28;20058;-82
2023/10/16 14:08:48;;;;;;;3.43;1.27;;;13.50;1.00;;;;;;6184286;28;20054;-85
2023/10/16 14:11:50;;;;;;;5.90;1.63;;;13.60;1.00;;;;;;6194155;28;20292;-84
2023/10/16 14:14:52;;;;;;;5.35;1.40;;;13.70;1.00;;;;;;6191683;28;20077;-83
2023/10/16 14:17:54;;;;;;;5.22;1.40;;;13.60;1.00;;;;;;6195226;28;20054;-85
2023/10/16 14:20:59;;;;;;;6.13;1.60;;;13.60;1.00;;;;;;6195924;28;20058;-85
2023/10/16 14:24:01;;;;;;;6.57;1.45;;;13.60;1.00;;;;;;6194350;28;20054;-86
2023/10/16 14:27:04;;;;;;;4.88;1.67;;;13.60;1.00;;;;;;6195526;28;20054;-87
2023/10/16 14:30:06;;;;;;;6.05;1.85;;;13.70;1.00;;;;;;6194092;28;20050;-85
2023/10/16 14:33:08;;;;;;;4.75;1.75;;;13.80;1.00;;;;;;6195996;28;20050;-83
2023/10/16 14:36:11;;;;;;;5.97;1.80;;;13.70;1.00;;;;;;6195479;28;20058;-85
2023/10/16 14:39:13;;;;;;;8.18;1.75;;;13.60;1.00;;;;;;6194558;28;20112;-84
2023/10/16 14:42:17;;;;;;;6.75;2.17;;;13.70;1.00;;;;;;6194060;28;20050;-85
2023/10/16 14:45:22;;;;;;;4.80;1.77;;;13.60;1.00;;;;;;6188732;28;20058;-79
2023/10/16 14:48:24;;;;;;;5.63;1.77;;;13.60;1.00;;;;;;6193007;28;20051;-84
2023/10/16 14:51:26;;;;;;;6.45;2.10;;;13.60;1.00;;;;;;6193295;28;20449;-81
2023/10/16 14:54:27;;;;;;;8.18;2.13;;;13.70;1.00;;;;;;6194944;28;20054;-80
2023/10/16 14:57:31;;;;;;;5.57;1.40;;;13.70;1.00;;;;;;6194150;28;20076;-79
2023/10/16 15:00:37;;;;;;;7.15;1.65;;;13.70;1.00;;;;;;6192633;28;20054;-79
2023/10/16 15:03:39;;;;;;;5.43;2.03;;;13.60;1.00;;;;;;6182567;28;20050;-81
2023/10/16 15:06:41;;;;;;;5.75;1.63;;;13.50;1.00;;;;;;6193479;28;20046;-78
2023/10/16 15:09:44;;;;;;;4.53;1.70;;;13.40;1.00;;;;;;6192141;28;20054;-83
2023/10/16 15:12:47;;;;;;;8.05;1.40;;;13.30;1.00;;;;;;6192630;28;20493;-78
2023/10/16 15:15:50;;;;;;;5.13;1.30;;;13.30;1.00;;;;;;6192320;28;20422;-81
2023/10/16 15:18:52;;;;;;;6.75;1.98;;;13.30;1.00;;;;;;6194070;28;20065;-80
2023/10/16 15:21:53;;;;;;;5.47;1.90;;;13.20;1.00;;;;;;6193795;28;20502;-81
2023/10/16 15:24:55;;;;;;;6.97;1.67;;;13.10;1.00;;;;;;6192829;28;20058;-79
2023/10/16 15:27:57;;;;;;;5.40;1.73;;;13.20;1.00;;;;;;6194431;28;20425;-79
2023/10/16 15:30:59;;;;;;;4.03;1.52;;;13.30;1.00;;;;;;6192851;28;20050;-82
2023/10/16 15:34:01;;;;;;;4.78;1.60;;;13.20;1.00;;;;;;6169688;28;20054;-82
2023/10/16 15:37:02;;;;;;;5.25;1.60;;;13.30;1.00;;;;;;6200486;28;20050;-80
2023/10/16 15:40:05;;;;;;;5.25;1.70;;;13.10;1.00;;;;;;6192134;28;20528;-83
2023/10/16 15:43:06;;;;;;;5.43;1.50;;;13.00;1.00;;;;;;6191168;28;20054;-83
2023/10/16 15:46:08;;;;;;;6.30;1.65;;;13.00;1.00;;;;;;6193500;28;20065;-83
2023/10/16 15:49:10;;;;;;;5.55;1.90;;;12.90;1.00;;;;;;6192619;28;20055;-82
2023/10/16 15:52:12;;;;;;;4.95;1.63;;;12.90;1.00;;;;;;6196948;28;20096;-78
2023/10/16 15:55:17;;;;;;;6.28;1.73;;;12.80;1.00;;;;;;6198633;28;20054;-78
2023/10/16 15:58:20;;;;;;;9.68;2.33;;;12.70;1.00;;;;;;6195296;28;20054;-80
2023/10/16 16:01:25;;;;;;;5.57;1.70;;;12.60;1.00;;;;;;6198398;28;20058;-79
2023/10/16 16:04:27;;;;;;;7.38;2.00;;;12.60;1.00;;;;;;6196962;28;20057;-78
2023/10/16 16:07:29;;;;;;;4.95;2.00;;;12.70;1.00;;;;;;6198092;28;20105;-78
2023/10/16 16:10:34;;;;;;;7.68;2.30;;;12.70;1.00;;;;;;6198536;28;20046;-87
2023/10/16 16:13:36;;;;;;;4.70;2.08;;;12.60;1.00;;;;;;6209580;23;20191;-85
2023/10/16 16:16:37;;;;;;;5.68;1.83;;;12.60;1.00;;;;;;6220855;28;20070;-80
2023/10/16 16:19:39;;;;;;;6.28;2.20;;;12.50;1.00;;;;;;6223397;28;20061;-81
2023/10/16 16:22:41;;;;;;;5.80;1.98;;;12.40;1.00;;;;;;6220516;28;20501;-79
2023/10/16 16:25:44;;;;;;;5.43;2.17;;;12.30;2.80;;;;;;6222094;28;20405;-80
2023/10/16 16:28:46;;;;;;;6.32;1.92;;;12.20;3.70;;;;;;6219886;28;20184;-78
2023/10/16 16:31:49;;;;;;;5.45;2.30;;;12.20;5.50;;;;;;6220839;28;20054;-78
2023/10/16 16:34:51;;;;;;;8.05;2.47;;;12.20;5.70;;;;;;6220592;28;20491;-77
2023/10/16 16:37:53;;;;;;;6.50;2.35;;;12.10;7.30;;;;;;6221355;28;20096;-80
2023/10/16 16:40:54;;;;;;;7.75;2.70;;;12.10;7.90;;;;;;6220120;28;20524;-79
2023/10/16 16:43:56;;;;;;;7.43;2.72;;;12.00;7.90;;;;;;6219428;28;20069;-78
2023/10/16 16:47:01;;;;;;;9.57;2.92;;;12.00;9.20;;;;;;6221983;28;20096;-79
2023/10/16 16:50:03;;;;;;;7.38;3.10;;;11.90;8.70;;;;;;6220925;28;20100;-78
2023/10/16 16:53:05;;;;;;;10.05;3.40;;;11.80;8.60;;;;;;6221624;28;20069;-77
2023/10/16 16:56:06;;;;;;;6.57;3.05;;;11.70;9.50;;;;;;6221967;28;20050;-80
2023/10/16 16:59:12;;;;;;;7.20;3.22;;;11.70;13.90;;;;;;6216580;28;20137;-78
2023/10/16 17:02:14;;;;;;;6.07;2.97;;;11.60;12.90;;;;;;6219479;28;20057;-82
2023/10/16 17:05:18;;;;;;;9.63;3.13;;;11.60;13.30;;;;;;6222489;28;20050;-80
2023/10/16 17:08:24;;;;;;;6.68;2.80;;;11.50;13.10;;;;;;6222391;28;20452;-82
2023/10/16 17:11:26;;;;;;;11.88;3.60;;;11.50;13.70;;;;;;6220080;28;20428;-80
2023/10/16 17:14:27;;;;;;;8.80;3.47;;;11.30;15.90;;;;;;6217080;28;20377;-80
2023/10/16 17:17:30;;;;;;;7.40;3.22;;;11.30;17.80;;;;;;6220458;28;20128;-77
2023/10/16 17:20:32;;;;;;;11.10;3.88;;;11.10;18.30;;;;;;6220343;28;20456;-78
2023/10/16 17:23:33;;;;;;;7.90;3.25;;;11.10;17.90;;;;;;6221290;28;20056;-86
2023/10/16 17:26:36;;;;;;;9.30;3.15;;;10.90;21.60;;;;;;6219889;28;20053;-78
2023/10/16 17:29:39;;;;;;;7.18;3.25;;;10.80;20.90;;;;;;6219096;28;20414;-78
2023/10/16 17:32:41;;;;;;;7.43;2.80;;;10.70;26.90;;;;;;6220096;28;20536;-84
2023/10/16 17:35:42;;;;;;;8.82;3.10;;;10.60;26.30;;;;;;6219308;28;20448;-77
2023/10/16 17:38:44;;;;;;;8.88;3.47;;;10.50;28.30;;;;;;6218867;28;20058;-78
2023/10/16 17:41:47;;;;;;;9.40;3.25;;;10.30;30.50;;;;;;6220267;28;20054;-80
2023/10/16 17:44:49;;;;;;;8.57;3.38;;;10.20;28.80;;;;;;6218922;28;20054;-79